createdAt,value
2018-05-04T00:02:02.126Z,49.31
2018-05-04T00:05:32.690Z,49.18
2018-05-04T00:08:37.938Z,49.93
2018-05-04T00:11:46.156Z,49.61
2018-05-04T00:14:53.011Z,49.33
2018-05-04T00:17:55.652Z,50.42
2018-05-04T00:20:59.507Z,50.21
2018-05-04T00:24:02.733Z,50.17
2018-05-04T00:27:06.531Z,49.81
2018-05-04T00:30:09.110Z,50.74
2018-05-04T00:33:23.540Z,50.05
2018-05-04T00:36:33.801Z,49.61
2018-05-04T00:39:36.625Z,50.69
2018-05-04T00:42:40.327Z,50.27
2018-05-04T00:45:45.262Z,50.77
2018-05-04T00:48:50.908Z,50.27
2018-05-04T00:51:54.063Z,51.83
2018-05-04T00:54:57.429Z,51.43
2018-05-04T00:58:00.880Z,51.84
2018-05-04T01:01:03.442Z,51.88
2018-05-04T01:04:06.117Z,52.20
2018-05-04T01:07:08.692Z,51.84
2018-05-04T01:10:11.293Z,51.76
2018-05-04T01:13:13.818Z,52.62
2018-05-04T01:16:16.324Z,52.09
2018-05-04T01:19:18.857Z,52.32
2018-05-04T01:22:21.453Z,52.53
2018-05-04T01:25:23.968Z,52.90
2018-05-04T01:28:26.536Z,52.88
2018-05-04T01:31:29.046Z,53.13
2018-05-04T01:34:33.102Z,53.46
2018-05-04T01:37:35.595Z,53.95
2018-05-04T01:40:38.161Z,53.04
2018-05-04T01:43:40.674Z,53.48
2018-05-04T01:46:43.233Z,53.38
2018-05-04T01:49:45.792Z,54.00
2018-05-04T01:52:48.390Z,53.61
2018-05-04T01:55:50.914Z,53.47
2018-05-04T01:58:53.481Z,54.00
2018-05-04T02:01:56.000Z,55.12
2018-05-04T02:04:58.927Z,54.89
2018-05-04T02:08:01.479Z,54.71
2018-05-04T02:11:04.158Z,55.36
2018-05-04T02:14:06.665Z,54.66
2018-05-04T02:17:09.181Z,53.85
2018-05-04T02:20:11.708Z,53.84
2018-05-04T02:23:20.557Z,54.25
2018-05-04T02:26:23.149Z,54.22
2018-05-04T02:29:25.745Z,55.02
2018-05-04T02:32:28.278Z,54.88
2018-05-04T02:35:30.847Z,54.78
2018-05-04T02:38:33.338Z,55.50
2018-05-04T02:41:35.945Z,55.14
2018-05-04T02:44:38.505Z,55.69
2018-05-04T02:47:41.084Z,56.42
2018-05-04T02:50:43.640Z,56.10
2018-05-04T02:53:46.186Z,56.09
2018-05-04T02:56:48.711Z,56.29
2018-05-04T02:59:51.274Z,56.09
2018-05-04T03:02:53.775Z,56.12
2018-05-04T03:05:56.334Z,56.09
2018-05-04T03:08:58.970Z,56.89
2018-05-04T03:12:01.510Z,56.07
2018-05-04T03:15:04.025Z,55.24
2018-05-04T03:18:06.772Z,55.61
2018-05-04T03:21:09.342Z,56.25
2018-05-04T03:24:11.841Z,56.11
2018-05-04T03:27:14.709Z,55.87
2018-05-04T03:30:17.233Z,55.23
2018-05-04T03:33:19.791Z,55.49
2018-05-04T03:36:22.353Z,55.46
2018-05-04T03:39:24.901Z,55.47
2018-05-04T03:42:27.463Z,55.58
2018-05-04T03:45:30.024Z,56.18
2018-05-04T03:48:32.573Z,56.74
2018-05-04T03:51:35.380Z,56.91
2018-05-04T03:54:37.945Z,56.61
2018-05-04T03:57:52.333Z,56.13
2018-05-04T04:01:06.605Z,56.81
2018-05-04T04:04:12.714Z,57.17
2018-05-04T04:07:15.241Z,56.00
2018-05-04T04:10:17.767Z,56.62
2018-05-04T04:13:20.309Z,55.87
2018-05-04T04:16:23.555Z,56.68
2018-05-04T04:19:26.123Z,56.56
2018-05-04T04:22:28.636Z,56.83
2018-05-04T04:25:31.218Z,57.00
2018-05-04T04:28:33.773Z,57.12
2018-05-04T04:31:36.371Z,56.35
2018-05-04T04:34:39.152Z,58.95
2018-05-04T04:37:41.754Z,57.62
2018-05-04T04:40:45.025Z,56.29
2018-05-04T04:43:48.615Z,55.52
2018-05-04T04:46:51.171Z,55.96
2018-05-04T04:49:54.469Z,55.43
2018-05-04T04:52:56.966Z,55.36
2018-05-04T04:55:59.463Z,55.35
2018-05-04T04:59:01.942Z,55.11
2018-05-04T05:02:04.480Z,54.87
2018-05-04T05:05:07.035Z,54.72
2018-05-04T05:08:09.691Z,54.42
2018-05-04T05:11:12.234Z,55.23
2018-05-04T05:14:14.747Z,55.12
2018-05-04T05:17:17.393Z,54.79
2018-05-04T05:20:19.950Z,54.83
2018-05-04T05:23:23.238Z,54.72
2018-05-04T05:26:27.045Z,54.89
2018-05-04T05:29:29.610Z,54.68
2018-05-04T05:32:32.081Z,54.29
2018-05-04T05:35:34.653Z,54.73
2018-05-04T05:38:37.148Z,54.65
2018-05-04T05:41:39.709Z,54.26
2018-05-04T05:44:42.280Z,56.06
2018-05-04T05:47:44.861Z,55.60
2018-05-04T05:50:47.417Z,56.16
2018-05-04T05:53:49.985Z,55.40
2018-05-04T05:56:52.492Z,54.82
2018-05-04T05:59:55.018Z,55.33
2018-05-04T06:02:57.508Z,54.35
2018-05-04T06:06:00.030Z,54.13
2018-05-04T06:09:02.521Z,54.46
2018-05-04T06:12:05.021Z,54.96
2018-05-04T06:15:07.606Z,54.86
2018-05-04T06:18:10.050Z,55.00
2018-05-04T06:21:12.531Z,55.06
2018-05-04T06:24:15.040Z,55.15
2018-05-04T06:27:17.540Z,55.00
2018-05-04T06:30:20.098Z,55.17
2018-05-04T06:33:22.609Z,55.06
2018-05-04T06:36:25.105Z,54.98
2018-05-04T06:39:27.638Z,54.58
2018-05-04T06:42:30.145Z,53.78
2018-05-04T06:45:32.675Z,54.16
2018-05-04T06:48:35.258Z,54.17
2018-05-04T06:51:37.756Z,54.94
2018-05-04T06:54:40.313Z,53.91
2018-05-04T06:57:42.885Z,53.60
2018-05-04T07:00:45.383Z,52.98
2018-05-04T07:03:48.701Z,50.80
2018-05-04T07:06:51.216Z,50.04
2018-05-04T07:09:53.797Z,50.26
2018-05-04T07:20:14.728Z,47.57
2018-05-04T07:23:17.227Z,47.37
2018-05-04T07:26:19.733Z,46.60
2018-05-04T07:29:22.317Z,45.87
2018-05-04T07:32:24.828Z,45.98
2018-05-04T07:35:27.328Z,46.40
2018-05-04T07:38:30.383Z,45.91
2018-05-04T07:41:34.651Z,45.24
2018-05-04T07:44:37.180Z,45.07
2018-05-04T07:47:40.183Z,45.16
2018-05-04T07:50:42.760Z,44.23
2018-05-04T07:53:45.381Z,43.73
2018-05-04T07:56:48.611Z,43.45
2018-05-04T07:59:51.590Z,43.07
2018-05-04T08:02:55.103Z,44.06
2018-05-04T08:05:57.607Z,42.58
2018-05-04T08:09:00.117Z,40.89
2018-05-04T08:12:02.696Z,40.92
2018-05-04T08:15:06.177Z,40.45
2018-05-04T08:18:09.118Z,39.02
2018-05-04T08:21:11.863Z,39.04
2018-05-04T08:24:15.176Z,38.68
2018-05-04T08:27:17.845Z,38.74
2018-05-04T08:30:20.385Z,38.86
2018-05-04T08:33:23.497Z,38.00
2018-05-04T08:36:26.125Z,37.33
2018-05-04T08:39:28.641Z,36.66
2018-05-04T08:42:31.275Z,35.96
2018-05-04T08:45:33.821Z,35.66
2018-05-04T08:48:36.387Z,35.35
2018-05-04T08:51:38.929Z,33.43
2018-05-04T08:54:41.466Z,34.32
2018-05-04T08:57:43.971Z,34.08
2018-05-04T09:00:46.517Z,34.54
2018-05-04T09:03:49.014Z,33.54
2018-05-04T09:06:51.721Z,32.35
2018-05-04T09:09:54.549Z,32.25
2018-05-04T09:16:04.315Z,30.83
2018-05-04T09:19:06.915Z,30.60
2018-05-04T09:22:11.935Z,31.21
2018-05-04T09:25:15.477Z,29.53
2018-05-04T09:28:18.579Z,29.92
2018-05-04T09:31:22.177Z,30.06
2018-05-04T09:34:24.766Z,29.05
2018-05-04T09:37:28.320Z,28.68
2018-05-04T09:40:31.710Z,28.46
2018-05-04T09:43:34.318Z,28.75
2018-05-04T09:46:36.867Z,29.62
2018-05-04T09:49:40.385Z,28.52
2018-05-04T09:52:42.885Z,27.63
2018-05-04T09:55:49.151Z,29.47
2018-05-04T09:58:51.743Z,28.57
2018-05-04T10:01:55.362Z,28.04
2018-05-04T10:04:57.929Z,28.18
2018-05-04T10:08:00.438Z,30.74
2018-05-04T10:11:02.988Z,27.45
2018-05-04T10:14:05.469Z,28.31
2018-05-04T10:17:07.956Z,26.76
2018-05-04T10:20:10.474Z,29.25
2018-05-04T10:23:12.999Z,27.92
2018-05-04T10:26:15.565Z,27.79
2018-05-04T10:29:18.107Z,27.33
2018-05-04T10:36:02.338Z,28.32
2018-05-04T10:39:05.024Z,28.94
2018-05-04T10:42:07.539Z,28.71
2018-05-04T10:45:10.765Z,27.76
2018-05-04T10:48:13.256Z,28.45
2018-05-04T10:51:15.824Z,28.17
2018-05-04T10:54:18.331Z,27.82
2018-05-04T10:57:20.830Z,28.13
2018-05-04T11:00:23.387Z,26.86
2018-05-04T11:03:26.002Z,26.89
2018-05-04T11:06:28.564Z,26.96
2018-05-04T11:09:31.088Z,27.34
2018-05-04T11:12:33.595Z,27.15
2018-05-04T11:15:36.135Z,27.17
2018-05-04T11:18:38.656Z,28.05
2018-05-04T11:21:41.242Z,26.58
2018-05-04T11:24:43.773Z,27.74
2018-05-04T11:27:46.299Z,26.36
2018-05-04T11:30:54.501Z,27.64
2018-05-04T11:33:57.038Z,25.94
2018-05-04T11:36:59.583Z,26.38
2018-05-04T11:40:02.142Z,26.90
2018-05-04T11:43:04.648Z,27.05
2018-05-04T11:46:07.204Z,27.30
2018-05-04T11:49:09.807Z,25.28
2018-05-04T11:52:13.222Z,26.12
2018-05-04T11:55:15.809Z,25.93
2018-05-04T11:58:18.343Z,26.23
2018-05-04T12:01:20.925Z,26.82
2018-05-04T12:04:30.083Z,27.09
2018-05-04T12:07:32.771Z,25.51
2018-05-04T12:10:35.325Z,26.89
2018-05-04T12:13:37.836Z,26.84
2018-05-04T12:16:40.369Z,25.79
2018-05-04T12:19:42.910Z,26.02
2018-05-04T12:22:45.543Z,26.41
2018-05-04T12:25:48.198Z,25.50
2018-05-04T12:28:50.806Z,25.54
2018-05-04T12:31:53.363Z,25.47
2018-05-04T12:34:55.896Z,25.72
2018-05-04T12:37:58.555Z,25.52
2018-05-04T12:41:01.145Z,26.02
2018-05-04T12:44:17.051Z,26.37
2018-05-04T12:47:19.715Z,24.70
2018-05-04T12:50:22.815Z,23.05
2018-05-04T12:53:26.222Z,25.22
2018-05-04T12:56:28.690Z,25.01
2018-05-04T12:59:32.516Z,24.80
2018-05-04T13:02:35.006Z,25.12
2018-05-04T13:05:40.266Z,25.73
2018-05-04T13:08:43.538Z,24.50
2018-05-04T13:11:46.065Z,24.32
2018-05-04T13:14:48.732Z,23.24
2018-05-04T13:17:51.336Z,23.07
2018-05-04T13:20:53.872Z,23.50
2018-05-04T13:23:57.834Z,22.71
2018-05-04T13:27:00.630Z,23.72
2018-05-04T13:30:04.359Z,22.89
2018-05-04T13:33:06.929Z,22.98
2018-05-04T13:36:09.628Z,23.75
2018-05-04T13:39:12.210Z,23.89
2018-05-04T13:42:14.768Z,23.45
2018-05-04T13:45:17.346Z,24.24
2018-05-04T13:48:19.898Z,23.64
2018-05-04T13:51:23.308Z,24.02
2018-05-04T13:54:27.428Z,24.03
2018-05-04T13:57:31.224Z,23.18
2018-05-04T14:00:37.270Z,24.81
2018-05-04T14:03:40.865Z,25.21
2018-05-04T14:06:43.449Z,25.39
2018-05-04T14:09:45.998Z,26.20
2018-05-04T14:12:48.750Z,26.18
2018-05-04T14:15:51.404Z,25.49
2018-05-04T14:18:53.957Z,25.62
2018-05-04T14:21:56.558Z,25.33
2018-05-04T14:24:59.128Z,25.54
2018-05-04T14:28:01.690Z,25.53
2018-05-04T14:31:05.351Z,25.97
2018-05-04T14:34:07.993Z,25.43
2018-05-04T14:37:10.641Z,25.81
2018-05-04T14:40:13.169Z,25.81
2018-05-04T14:43:16.896Z,25.52
2018-05-04T14:46:19.577Z,25.41
2018-05-04T14:49:22.151Z,26.12
2018-05-04T14:52:26.459Z,25.08
2018-05-04T14:55:29.110Z,25.83
2018-05-04T14:58:31.720Z,25.25
2018-05-04T15:01:34.265Z,25.55
2018-05-04T15:04:36.784Z,25.92
2018-05-04T15:07:39.384Z,25.17
2018-05-04T15:10:41.922Z,25.74
2018-05-04T15:13:45.192Z,25.50
2018-05-04T15:16:47.771Z,26.12
2018-05-04T15:19:50.286Z,26.34
2018-05-04T15:22:53.383Z,26.41
2018-05-04T15:25:55.977Z,26.68
2018-05-04T15:28:58.568Z,26.88
2018-05-04T15:32:03.396Z,27.08
2018-05-04T15:35:05.915Z,26.84
2018-05-04T15:38:09.362Z,27.07
2018-05-04T15:41:13.236Z,27.43
2018-05-04T15:44:16.224Z,27.42
2018-05-04T15:47:18.945Z,26.21
2018-05-04T15:50:27.003Z,26.78
2018-05-04T15:53:30.280Z,27.33
2018-05-04T15:56:32.898Z,27.26
2018-05-04T15:59:35.392Z,26.91
2018-05-04T16:02:37.937Z,26.45
2018-05-04T16:05:40.534Z,26.94
2018-05-04T16:08:46.287Z,27.58
2018-05-04T16:11:51.638Z,27.17
2018-05-04T16:14:54.255Z,27.46
2018-05-04T16:17:56.887Z,28.81
2018-05-04T16:20:59.439Z,27.37
2018-05-04T16:24:03.706Z,27.53
2018-05-04T16:27:07.403Z,27.76
2018-05-04T16:30:11.578Z,27.81
2018-05-04T16:33:14.233Z,28.14
2018-05-04T16:36:22.494Z,28.25
2018-05-04T16:39:25.238Z,28.29
2018-05-04T16:42:27.805Z,28.38
2018-05-04T16:45:30.986Z,29.05
2018-05-04T16:48:39.202Z,29.28
2018-05-04T16:51:42.046Z,29.20
2018-05-04T16:54:45.372Z,29.62
2018-05-04T16:57:49.764Z,29.67
2018-05-04T17:00:52.353Z,30.40
2018-05-04T17:03:54.983Z,29.98
2018-05-04T17:06:57.810Z,30.29
2018-05-04T17:10:00.786Z,33.43
2018-05-04T17:13:03.635Z,32.17
2018-05-04T17:16:06.386Z,32.25
2018-05-04T17:19:11.862Z,30.65
2018-05-04T17:22:15.350Z,31.57
2018-05-04T17:25:20.269Z,31.51
2018-05-04T17:28:22.974Z,31.52
2018-05-04T17:31:25.586Z,32.00
2018-05-04T17:34:28.143Z,31.24
2018-05-04T17:37:30.721Z,31.37
2018-05-04T17:40:33.609Z,31.45
2018-05-04T17:43:37.900Z,31.63
2018-05-04T17:46:54.415Z,31.77
2018-05-04T17:50:06.012Z,32.26
2018-05-04T17:53:19.070Z,33.16
2018-05-04T17:56:32.564Z,33.50
2018-05-04T17:59:36.534Z,33.37
2018-05-04T18:02:42.239Z,33.23
2018-05-04T18:05:45.120Z,32.71
2018-05-04T18:08:49.080Z,33.04
2018-05-04T18:11:51.787Z,32.99
2018-05-04T18:14:54.388Z,33.19
2018-05-04T18:17:57.320Z,34.03
2018-05-04T18:21:00.064Z,33.81
2018-05-04T18:24:02.866Z,34.78
2018-05-04T18:27:05.531Z,35.40
2018-05-04T18:30:08.323Z,35.95
2018-05-04T18:33:11.970Z,36.33
2018-05-04T18:36:15.545Z,36.93
2018-05-04T18:39:18.383Z,36.12
2018-05-04T18:42:29.272Z,36.06
2018-05-04T18:45:32.864Z,36.84
2018-05-04T18:48:35.555Z,37.26
2018-05-04T18:51:39.582Z,39.42
2018-05-04T18:54:42.453Z,38.95
2018-05-04T18:57:45.203Z,39.62
2018-05-04T19:00:47.921Z,39.90
2018-05-04T19:03:51.532Z,40.63
2018-05-04T19:06:55.101Z,41.05
2018-05-04T19:09:57.725Z,40.71
2018-05-04T19:13:00.312Z,40.73
2018-05-04T19:16:04.252Z,41.27
2018-05-04T19:22:37.940Z,42.08
2018-05-04T19:25:47.068Z,42.82
2018-05-04T19:28:50.888Z,42.74
2018-05-04T19:31:57.575Z,42.48
2018-05-04T19:35:01.873Z,42.64
2018-05-04T19:41:35.906Z,42.66
2018-05-04T19:45:04.227Z,43.05
2018-05-04T19:48:10.010Z,43.16
2018-05-04T19:51:20.262Z,43.31
2018-05-04T19:54:22.941Z,43.82
2018-05-04T19:57:25.594Z,44.97
2018-05-04T20:00:45.407Z,44.43
2018-05-04T20:04:01.698Z,44.00
2018-05-04T20:07:06.851Z,44.62
2018-05-04T20:15:09.212Z,45.34
2018-05-04T20:18:15.760Z,44.41
2018-05-04T20:21:34.191Z,46.16
2018-05-04T20:24:44.022Z,45.09
2018-05-04T20:27:46.660Z,44.88
2018-05-04T20:30:50.908Z,45.30
2018-05-04T20:33:53.561Z,45.76
2018-05-04T20:36:56.500Z,45.45
2018-05-04T20:40:06.084Z,45.24
2018-05-04T20:43:08.766Z,45.67
2018-05-04T20:46:11.367Z,44.66
2018-05-04T20:49:13.967Z,46.64
2018-05-04T20:52:17.672Z,44.93
2018-05-04T20:55:20.238Z,45.91
2018-05-04T20:58:22.831Z,45.71
2018-05-04T21:01:25.459Z,45.33
2018-05-04T21:04:28.110Z,45.93
2018-05-04T21:07:30.711Z,45.60
2018-05-04T21:10:33.295Z,45.62
2018-05-04T21:13:35.842Z,45.94
2018-05-04T21:16:38.510Z,46.00
2018-05-04T21:19:41.040Z,45.79
2018-05-04T21:22:43.712Z,46.16
2018-05-04T21:25:46.291Z,45.63
2018-05-04T21:28:48.946Z,46.27
2018-05-04T21:31:51.623Z,47.01
2018-05-04T21:34:54.135Z,46.80
2018-05-04T21:37:56.702Z,46.87
2018-05-04T21:40:59.278Z,47.32
2018-05-04T21:44:01.886Z,46.54
2018-05-04T21:47:04.510Z,46.10
2018-05-04T21:50:07.082Z,46.25
2018-05-04T21:53:09.717Z,46.61
2018-05-04T21:56:12.845Z,46.85
2018-05-04T21:59:15.544Z,46.96
2018-05-04T22:02:18.090Z,46.75
2018-05-04T22:05:21.234Z,47.35
2018-05-04T22:08:23.960Z,47.86
2018-05-04T22:11:28.958Z,47.51
2018-05-04T22:14:36.944Z,47.62
2018-05-04T22:17:40.706Z,49.80
2018-05-04T22:20:43.262Z,48.54
2018-05-04T22:23:45.905Z,48.35
2018-05-04T22:26:48.734Z,49.03
2018-05-04T22:29:51.319Z,48.94
2018-05-04T22:32:53.907Z,49.55
2018-05-04T22:35:57.700Z,49.53
2018-05-04T22:39:00.480Z,50.03
2018-05-04T22:42:04.321Z,50.43
2018-05-04T22:45:07.253Z,49.86
2018-05-04T22:48:09.816Z,50.43
2018-05-04T22:51:13.561Z,49.81
2018-05-04T22:54:16.199Z,50.54
2018-05-04T22:57:20.856Z,50.77
2018-05-04T23:00:23.448Z,51.28
2018-05-04T23:03:26.103Z,51.83
2018-05-04T23:06:28.667Z,51.96
2018-05-04T23:09:32.331Z,52.00
2018-05-04T23:12:35.030Z,52.41
2018-05-04T23:15:39.451Z,54.20
2018-05-04T23:18:42.073Z,52.87
2018-05-04T23:21:44.724Z,52.57
2018-05-04T23:24:48.178Z,52.38
2018-05-04T23:27:50.749Z,52.26
2018-05-04T23:30:53.434Z,52.60
2018-05-04T23:33:55.928Z,52.94
2018-05-04T23:37:02.848Z,53.70
2018-05-04T23:40:05.402Z,54.65
2018-05-04T23:43:07.876Z,52.86
2018-05-04T23:46:10.430Z,53.19
2018-05-04T23:49:12.968Z,53.55
2018-05-04T23:52:15.581Z,54.27
2018-05-04T23:55:19.314Z,53.91
2018-05-04T23:58:22.828Z,54.39
